createdAt,value
2019-05-01T00:00:24.748Z,23.37
2019-05-01T00:03:49.121Z,19.73
2019-05-01T00:07:00.993Z,20.37
2019-05-01T00:10:07.238Z,20.10
2019-05-01T00:13:12.070Z,22.50
2019-05-01T00:16:16.910Z,19.67
2019-05-01T00:19:21.737Z,21.00
2019-05-01T00:22:26.186Z,21.97
2019-05-01T00:25:30.624Z,20.50
2019-05-01T00:28:35.317Z,23.57
2019-05-01T00:31:39.749Z,21.10
2019-05-01T00:34:44.194Z,21.63
2019-05-01T00:37:48.889Z,21.30
2019-05-01T00:40:53.624Z,26.93
2019-05-01T00:43:58.067Z,22.40
2019-05-01T00:47:02.778Z,20.07
2019-05-01T00:50:09.087Z,25.33
2019-05-01T00:53:13.880Z,19.93
2019-05-01T00:56:25.707Z,24.40
2019-05-01T00:59:32.674Z,27.43
2019-05-01T01:02:41.760Z,24.47
2019-05-01T01:05:46.197Z,23.47
2019-05-01T01:08:50.654Z,22.67
2019-05-01T01:11:55.085Z,20.63
2019-05-01T01:14:59.535Z,23.80
2019-05-01T01:18:04.264Z,18.73
2019-05-01T01:21:08.947Z,25.13
2019-05-01T01:24:13.780Z,22.20
2019-05-01T01:27:18.359Z,20.53
2019-05-01T01:30:22.871Z,21.77
2019-05-01T01:33:27.318Z,20.30
2019-05-01T01:36:31.758Z,21.47
2019-05-01T01:39:36.196Z,22.93
2019-05-01T01:42:41.770Z,19.83
2019-05-01T01:45:47.859Z,19.47
2019-05-01T01:48:52.475Z,20.87
2019-05-01T01:51:57.041Z,21.57
2019-05-01T01:55:01.805Z,19.13
2019-05-01T01:58:07.259Z,19.40
2019-05-01T02:01:19.114Z,22.40
2019-05-01T02:04:41.624Z,18.83
2019-05-01T02:07:46.437Z,24.93
2019-05-01T02:10:50.944Z,21.90
2019-05-01T02:13:56.917Z,17.93
2019-05-01T02:17:01.358Z,18.10
2019-05-01T02:20:08.646Z,17.90
2019-05-01T02:23:13.082Z,19.87
2019-05-01T02:26:20.107Z,20.40
2019-05-01T02:29:27.368Z,18.87
2019-05-01T02:32:32.536Z,23.27
2019-05-01T02:35:37.060Z,23.40
2019-05-01T02:38:43.874Z,23.33
2019-05-01T02:41:51.886Z,21.43
2019-05-01T02:44:59.791Z,22.20
2019-05-01T02:48:05.367Z,20.83
2019-05-01T02:51:11.294Z,19.70
2019-05-01T02:54:17.163Z,22.57
2019-05-01T02:57:23.977Z,20.37
2019-05-01T03:00:29.171Z,19.43
2019-05-01T03:03:34.012Z,19.83
2019-05-01T03:06:39.463Z,20.30
2019-05-01T03:09:44.601Z,18.23
2019-05-01T03:12:51.284Z,19.00
2019-05-01T03:15:56.171Z,19.17
2019-05-01T03:19:08.445Z,23.57
2019-05-01T03:22:29.467Z,20.03
2019-05-01T03:25:34.192Z,18.83
2019-05-01T03:28:39.507Z,19.23
2019-05-01T03:31:43.957Z,19.13
2019-05-01T03:34:52.653Z,18.03
2019-05-01T03:37:54.926Z,21.73
2019-05-01T03:40:59.971Z,21.03
2019-05-01T03:44:05.242Z,22.07
2019-05-01T03:47:10.050Z,22.60
2019-05-01T03:50:14.873Z,18.83
2019-05-01T03:53:19.310Z,18.63
2019-05-01T03:56:24.639Z,19.77
2019-05-01T03:59:29.209Z,17.97
2019-05-01T04:02:47.281Z,18.07
2019-05-01T04:05:52.149Z,19.53
2019-05-01T04:08:56.743Z,20.10
2019-05-01T04:12:02.210Z,19.10
2019-05-01T04:15:07.923Z,21.43
2019-05-01T04:18:12.546Z,19.37
2019-05-01T04:21:18.519Z,17.97
2019-05-01T04:24:23.709Z,16.87
2019-05-01T04:27:29.935Z,17.60
2019-05-01T04:30:39.023Z,19.23
2019-05-01T04:33:45.173Z,16.83
2019-05-01T04:36:49.930Z,20.40
2019-05-01T04:39:54.435Z,17.37
2019-05-01T04:42:59.322Z,18.93
2019-05-01T04:46:03.829Z,18.60
2019-05-01T04:49:08.623Z,19.13
2019-05-01T04:52:13.130Z,17.53
2019-05-01T04:55:17.971Z,21.07
2019-05-01T04:58:22.426Z,18.37
2019-05-01T05:01:30.637Z,19.57
2019-05-01T05:04:35.436Z,18.00
2019-05-01T05:07:39.875Z,20.60
2019-05-01T05:10:45.389Z,19.57
2019-05-01T05:14:08.171Z,17.60
2019-05-01T05:17:20.783Z,24.37
2019-05-01T05:20:25.960Z,27.30
2019-05-01T05:23:31.049Z,21.10
2019-05-01T05:26:36.013Z,23.73
2019-05-01T05:29:41.145Z,20.27
2019-05-01T05:32:47.719Z,28.90
2019-05-01T05:35:54.876Z,23.53
2019-05-01T05:39:02.302Z,29.80
2019-05-01T05:42:07.640Z,34.63
2019-05-01T05:45:12.093Z,34.57
2019-05-01T05:48:17.111Z,32.97
2019-05-01T05:51:40.302Z,28.23
2019-05-01T05:55:00.783Z,28.37
2019-05-01T05:58:08.537Z,30.37
2019-05-01T06:01:33.681Z,30.53
2019-05-01T06:04:42.702Z,28.70
2019-05-01T06:07:52.871Z,27.90
2019-05-01T06:11:00.492Z,30.03
2019-05-01T06:14:11.134Z,33.57
2019-05-01T06:17:15.346Z,31.57
2019-05-01T06:20:26.011Z,28.53
2019-05-01T06:23:34.465Z,25.57
2019-05-01T06:26:39.694Z,30.50
2019-05-01T06:29:45.249Z,23.80
2019-05-01T06:32:49.761Z,28.23
2019-05-01T06:35:54.596Z,23.83
2019-05-01T06:38:59.782Z,21.53
2019-05-01T06:42:09.918Z,27.13
2019-05-01T06:45:16.788Z,26.83
2019-05-01T06:48:28.981Z,29.63
2019-05-01T06:51:33.459Z,26.27
2019-05-01T06:54:38.047Z,26.43
2019-05-01T06:57:44.013Z,24.80
2019-05-01T07:00:51.536Z,27.00
2019-05-01T07:04:03.637Z,26.90
2019-05-01T07:07:06.836Z,23.17
2019-05-01T07:10:10.662Z,22.97
2019-05-01T07:13:15.196Z,28.43
2019-05-01T07:16:22.805Z,24.77
2019-05-01T07:19:45.349Z,23.60
2019-05-01T07:22:50.207Z,26.73
2019-05-01T07:25:54.941Z,28.63
2019-05-01T07:29:01.025Z,24.20
2019-05-01T07:32:06.427Z,23.90
2019-05-01T07:35:11.353Z,25.27
2019-05-01T07:38:16.417Z,25.17
2019-05-01T07:41:20.868Z,24.97
2019-05-01T07:44:30.086Z,23.77
2019-05-01T07:47:41.277Z,35.20
2019-05-01T07:50:46.237Z,24.87
2019-05-01T07:53:51.316Z,24.00
2019-05-01T07:56:58.719Z,25.07
2019-05-01T08:00:08.149Z,24.97
2019-05-01T08:03:10.621Z,22.30
2019-05-01T08:06:16.092Z,25.10
2019-05-01T08:09:21.305Z,25.60
2019-05-01T08:12:25.988Z,25.07
2019-05-01T08:15:32.675Z,22.97
2019-05-01T08:18:58.872Z,22.83
2019-05-01T08:22:05.270Z,23.77
2019-05-01T08:25:09.854Z,22.33
2019-05-01T08:28:33.301Z,22.33
2019-05-01T08:31:58.731Z,22.03
2019-05-01T08:35:03.907Z,18.93
2019-05-01T08:38:08.363Z,21.57
2019-05-01T08:41:13.058Z,21.20
2019-05-01T08:44:19.149Z,24.87
2019-05-01T08:47:27.565Z,22.00
2019-05-01T08:50:31.759Z,21.37
2019-05-01T08:53:36.486Z,20.30
2019-05-01T08:56:43.634Z,18.33
2019-05-01T08:59:47.383Z,21.15
2019-05-01T09:02:51.840Z,19.85
2019-05-01T09:05:57.386Z,19.17
2019-05-01T09:09:02.917Z,19.37
2019-05-01T09:12:11.927Z,16.43
2019-05-01T09:15:14.833Z,18.50
2019-05-01T09:18:19.283Z,19.83
2019-05-01T09:21:23.735Z,19.97
2019-05-01T09:24:29.432Z,19.67
2019-05-01T09:27:35.901Z,19.20
2019-05-01T09:30:44.559Z,18.20
2019-05-01T09:33:49.011Z,21.10
2019-05-01T09:36:53.775Z,19.40
2019-05-01T09:39:58.633Z,15.80
2019-05-01T09:43:03.338Z,19.12
2019-05-01T09:46:07.846Z,15.00
2019-05-01T09:49:14.354Z,15.40
2019-05-01T09:52:24.817Z,20.20
2019-05-01T09:55:30.146Z,14.20
2019-05-01T09:58:34.599Z,14.77
2019-05-01T10:01:39.116Z,15.50
2019-05-01T10:04:43.823Z,16.80
2019-05-01T10:07:48.267Z,16.20
2019-05-01T10:10:52.801Z,13.70
2019-05-01T10:13:58.425Z,12.40
2019-05-01T10:17:03.420Z,13.75
2019-05-01T10:20:08.781Z,17.77
2019-05-01T10:23:14.978Z,17.82
2019-05-01T10:26:23.917Z,14.65
2019-05-01T10:29:31.767Z,14.05
2019-05-01T10:32:38.179Z,14.43
2019-05-01T10:35:44.552Z,14.18
2019-05-01T10:38:49.283Z,14.60
2019-05-01T10:41:53.727Z,15.73
2019-05-01T10:44:58.249Z,15.00
2019-05-01T10:48:02.849Z,14.50
2019-05-01T10:51:07.591Z,16.37
2019-05-01T10:54:12.046Z,14.90
2019-05-01T10:57:16.559Z,11.15
2019-05-01T11:00:21.676Z,11.00
2019-05-01T11:03:26.128Z,12.60
2019-05-01T11:06:30.831Z,14.87
2019-05-01T11:09:35.273Z,12.85
2019-05-01T11:12:39.989Z,10.32
2019-05-01T11:15:44.435Z,10.93
2019-05-01T11:18:48.876Z,10.60
2019-05-01T11:21:53.330Z,9.95
2019-05-01T11:24:57.776Z,9.78
2019-05-01T11:28:02.216Z,9.45
2019-05-01T11:31:08.315Z,10.30
2019-05-01T11:34:17.101Z,9.95
2019-05-01T11:37:27.248Z,12.50
2019-05-01T11:40:36.079Z,12.68
2019-05-01T11:43:40.810Z,13.60
2019-05-01T11:46:45.334Z,11.12
2019-05-01T11:49:49.764Z,11.90
2019-05-01T11:52:54.208Z,13.28
2019-05-01T11:55:58.918Z,11.18
2019-05-01T11:59:03.367Z,10.70
2019-05-01T12:02:07.881Z,16.73
2019-05-01T12:05:12.698Z,10.72
2019-05-01T12:08:17.154Z,10.60
2019-05-01T12:11:23.605Z,13.53
2019-05-01T12:14:28.035Z,14.13
2019-05-01T12:17:34.381Z,9.83
2019-05-01T12:20:38.825Z,14.35
2019-05-01T12:23:43.274Z,15.85
2019-05-01T12:26:47.726Z,12.95
2019-05-01T12:29:52.493Z,13.98
2019-05-01T12:32:56.938Z,13.15
2019-05-01T12:36:03.017Z,12.60
2019-05-01T12:39:16.995Z,10.50
2019-05-01T12:42:28.783Z,13.32
2019-05-01T12:45:33.655Z,14.55
2019-05-01T12:48:38.388Z,11.20
2019-05-01T12:51:44.471Z,14.05
2019-05-01T12:54:52.094Z,12.45
2019-05-01T12:57:57.077Z,11.33
2019-05-01T13:01:01.517Z,12.05
2019-05-01T13:04:05.974Z,14.95
2019-05-01T13:07:10.961Z,11.12
2019-05-01T13:10:15.674Z,13.15
2019-05-01T13:13:20.125Z,10.75
2019-05-01T13:16:24.569Z,11.30
2019-05-01T13:19:29.021Z,10.28
2019-05-01T13:22:33.801Z,10.80
2019-05-01T13:25:38.305Z,12.90
2019-05-01T13:29:02.195Z,13.20
2019-05-01T13:32:14.411Z,11.33
2019-05-01T13:35:18.933Z,10.35
2019-05-01T13:38:23.664Z,8.83
2019-05-01T13:41:28.103Z,12.73
2019-05-01T13:44:32.552Z,11.20
2019-05-01T13:47:37.343Z,8.30
2019-05-01T13:50:42.222Z,11.55
2019-05-01T13:53:46.673Z,11.55
2019-05-01T13:56:51.119Z,11.10
2019-05-01T13:59:55.858Z,12.13
2019-05-01T14:03:00.305Z,9.68
2019-05-01T14:06:05.011Z,8.15
2019-05-01T14:09:11.362Z,10.40
2019-05-01T14:12:15.806Z,8.45
2019-05-01T14:15:20.249Z,9.28
2019-05-01T14:18:24.958Z,9.25
2019-05-01T14:21:31.332Z,11.05
2019-05-01T14:24:37.705Z,12.75
2019-05-01T14:27:42.142Z,13.08
2019-05-01T14:30:46.591Z,10.15
2019-05-01T14:33:51.034Z,9.30
2019-05-01T14:36:55.504Z,11.28
2019-05-01T14:40:00.225Z,11.10
2019-05-01T14:43:04.666Z,8.08
2019-05-01T14:46:09.234Z,11.50
2019-05-01T14:49:13.630Z,8.78
2019-05-01T14:52:18.155Z,11.85
2019-05-01T14:55:22.862Z,13.35
2019-05-01T14:58:27.588Z,8.38
2019-05-01T15:01:32.027Z,8.30
2019-05-01T15:04:36.474Z,8.45
2019-05-01T15:07:43.869Z,7.92
2019-05-01T15:10:47.340Z,9.28
2019-05-01T15:13:59.744Z,13.22
2019-05-01T15:17:21.646Z,9.35
2019-05-01T15:20:26.089Z,8.75
2019-05-01T15:23:30.528Z,8.93
2019-05-01T15:26:35.261Z,6.65
2019-05-01T15:29:39.986Z,13.22
2019-05-01T15:32:44.424Z,7.65
2019-05-01T15:35:48.871Z,11.22
2019-05-01T15:38:53.313Z,8.50
2019-05-01T15:42:05.063Z,9.03
2019-05-01T15:45:09.952Z,11.60
2019-05-01T15:48:14.923Z,9.43
2019-05-01T15:51:19.648Z,9.08
2019-05-01T15:54:24.084Z,10.38
2019-05-01T15:57:28.805Z,10.20
2019-05-01T16:00:33.255Z,7.05
2019-05-01T16:03:37.962Z,10.78
2019-05-01T16:06:42.411Z,11.63
2019-05-01T16:09:46.862Z,16.12
2019-05-01T16:12:52.937Z,8.20
2019-05-01T16:15:57.706Z,8.63
2019-05-01T16:19:02.435Z,9.03
2019-05-01T16:22:07.166Z,9.73
2019-05-01T16:25:12.307Z,9.85
2019-05-01T16:28:16.747Z,9.98
2019-05-01T16:31:21.193Z,7.20
2019-05-01T16:34:25.628Z,7.78
2019-05-01T16:37:30.067Z,10.10
2019-05-01T16:40:38.846Z,7.97
2019-05-01T16:43:43.562Z,10.23
2019-05-01T16:46:48.010Z,10.32
2019-05-01T16:49:52.451Z,7.50
2019-05-01T16:52:57.239Z,12.20
2019-05-01T16:56:01.965Z,8.60
2019-05-01T16:59:06.697Z,8.78
2019-05-01T17:02:24.536Z,10.35
2019-05-01T17:05:30.685Z,8.98
2019-05-01T17:08:37.143Z,7.58
2019-05-01T17:11:42.111Z,6.85
2019-05-01T17:14:46.837Z,7.83
2019-05-01T17:17:51.286Z,8.05
2019-05-01T17:20:55.872Z,10.08
2019-05-01T17:24:00.308Z,6.90
2019-05-01T17:27:04.751Z,6.75
2019-05-01T17:30:11.731Z,6.20
2019-05-01T17:33:20.608Z,8.08
2019-05-01T17:36:22.625Z,7.97
2019-05-01T17:39:27.060Z,11.08
2019-05-01T17:42:32.940Z,9.00
2019-05-01T17:45:37.670Z,7.50
2019-05-01T17:48:42.117Z,8.43
2019-05-01T17:51:47.526Z,9.23
2019-05-01T17:54:52.077Z,9.88
2019-05-01T17:57:56.520Z,7.57
2019-05-01T18:01:06.512Z,7.42
2019-05-01T18:04:18.023Z,7.67
2019-05-01T18:07:23.136Z,8.50
2019-05-01T18:10:27.865Z,8.17
2019-05-01T18:13:32.378Z,6.47
2019-05-01T18:16:37.128Z,6.40
2019-05-01T18:19:41.850Z,8.50
2019-05-01T18:22:46.063Z,8.30
2019-05-01T18:26:04.758Z,6.40
2019-05-01T18:29:18.799Z,7.50
2019-05-01T18:32:28.222Z,8.33
2019-05-01T18:35:32.736Z,11.37
2019-05-01T18:38:42.889Z,8.27
2019-05-01T18:41:55.165Z,8.43
2019-05-01T18:44:59.596Z,7.33
2019-05-01T18:48:04.422Z,8.80
2019-05-01T18:51:08.886Z,10.33
2019-05-01T18:54:13.336Z,7.67
2019-05-01T18:57:18.152Z,7.00
2019-05-01T19:00:22.595Z,9.87
2019-05-01T19:03:29.707Z,7.57
2019-05-01T19:06:41.102Z,8.67
2019-05-01T19:09:39.543Z,6.10
2019-05-01T19:12:43.998Z,11.40
2019-05-01T19:15:50.724Z,10.00
2019-05-01T19:18:55.467Z,9.97
2019-05-01T19:21:59.895Z,8.47
2019-05-01T19:25:05.025Z,8.77
2019-05-01T19:28:09.863Z,6.97
2019-05-01T19:31:14.723Z,7.73
2019-05-01T19:34:19.162Z,7.43
2019-05-01T19:37:24.947Z,9.10
2019-05-01T19:40:32.539Z,7.97
2019-05-01T19:43:40.469Z,10.53
2019-05-01T19:46:42.547Z,8.57
2019-05-01T19:49:47.000Z,10.10
2019-05-01T19:52:51.442Z,8.50
2019-05-01T19:55:56.235Z,10.47
2019-05-01T19:59:00.688Z,8.93
2019-05-01T20:02:07.463Z,9.90
2019-05-01T20:05:12.273Z,9.33
2019-05-01T20:08:17.308Z,10.37
2019-05-01T20:11:22.026Z,10.30
2019-05-01T20:14:26.494Z,8.10
2019-05-01T20:17:31.493Z,10.23
2019-05-01T20:20:35.938Z,10.73
2019-05-01T20:23:40.412Z,8.40
2019-05-01T20:26:44.825Z,11.47
2019-05-01T20:29:49.595Z,11.23
2019-05-01T20:32:58.273Z,10.33
2019-05-01T20:36:04.654Z,10.73
2019-05-01T20:39:08.940Z,13.20
2019-05-01T20:42:13.737Z,13.57
2019-05-01T20:45:19.650Z,18.67
2019-05-01T20:48:25.171Z,11.87
2019-05-01T20:51:29.865Z,14.30
2019-05-01T20:54:34.314Z,14.87
2019-05-01T20:57:49.577Z,12.37
2019-05-01T21:00:55.669Z,14.03
2019-05-01T21:04:09.180Z,12.73
2019-05-01T21:07:19.865Z,13.60
2019-05-01T21:10:29.814Z,13.83
2019-05-01T21:13:34.816Z,14.10
2019-05-01T21:16:39.633Z,14.67
2019-05-01T21:19:44.215Z,11.90
2019-05-01T21:22:48.873Z,11.63
2019-05-01T21:25:53.868Z,13.67
2019-05-01T21:28:58.583Z,11.87
2019-05-01T21:32:03.571Z,13.37
2019-05-01T21:35:08.226Z,12.87
2019-05-01T21:38:13.097Z,13.40
2019-05-01T21:41:18.420Z,8.53
2019-05-01T21:44:23.438Z,10.97
2019-05-01T21:47:27.882Z,11.60
2019-05-01T21:50:33.560Z,12.37
2019-05-01T21:53:42.684Z,12.70
2019-05-01T21:56:44.508Z,14.73
2019-05-01T21:59:51.281Z,11.20
2019-05-01T22:02:55.677Z,11.47
2019-05-01T22:06:00.122Z,12.27
2019-05-01T22:09:10.497Z,18.67
2019-05-01T22:12:14.430Z,11.93
2019-05-01T22:15:36.593Z,11.77
2019-05-01T22:18:57.633Z,12.40
2019-05-01T22:22:03.720Z,12.87
2019-05-01T22:25:19.234Z,13.47
2019-05-01T22:28:25.319Z,11.10
2019-05-01T22:31:52.901Z,10.17
2019-05-01T22:35:06.626Z,10.70
2019-05-01T22:38:11.072Z,12.57
2019-05-01T22:41:15.526Z,12.60
2019-05-01T22:44:20.315Z,15.07
2019-05-01T22:47:24.823Z,10.50
2019-05-01T22:50:29.266Z,10.63
2019-05-01T22:53:33.976Z,11.47
2019-05-01T22:56:38.714Z,10.53
2019-05-01T22:59:43.445Z,11.13
2019-05-01T23:02:47.879Z,8.00
2019-05-01T23:05:52.596Z,10.77
2019-05-01T23:08:57.324Z,9.50
2019-05-01T23:12:02.212Z,9.77
2019-05-01T23:15:10.402Z,8.40
2019-05-01T23:18:15.576Z,10.70
2019-05-01T23:21:21.012Z,10.23
2019-05-01T23:24:25.795Z,10.77
2019-05-01T23:27:30.788Z,11.27
2019-05-01T23:30:35.259Z,10.43
2019-05-01T23:33:39.699Z,8.33
2019-05-01T23:36:44.173Z,11.13
2019-05-01T23:39:48.933Z,17.43
2019-05-01T23:42:53.949Z,13.60
2019-05-01T23:45:58.512Z,14.23
2019-05-01T23:49:03.231Z,12.57
2019-05-01T23:52:07.964Z,12.33
2019-05-01T23:55:12.752Z,12.80
2019-05-01T23:58:17.519Z,9.97
